Portada
METAR-TAF:

METAR-TAF

Aeroports :

Tyndall Air Force Base

Panama City, Florida, Estats Units d'Amèrica

latitud: 30-04N, longitud: 085-35W, altitud: 5 m

Observació

L'informe es va fer fa 1 hora i 20 minuts, a les 16:57 UTC
Vent 11 kt del Oest/Nord-Oest
Temperatura 9°C
Humitat 49%
Pressió 1026 hPa
Visibilitat: 16.1 km
Cel clar

METAR: KPAM 271657Z AUTO 30011KT 10SM CLR 09/M01 A3029 RMK AO2 WSHFT 45 SLP260 $

Hora: 12:17 (18:17 UTC)

Pronòstic

L'informe es va fer fa 7 hores i 17 minuts, a les 11:00 UTC
Pronòstic vàlid del 27 a les 11 UTC al 28 a les 17 UTC
Vent 10 kt del Nord/Nord-Oest amb ràfegues de 15 kt
Visibilitat: 2718 m
Cel clar
Evolucionant progressivament
l' 28 a les 16 UTC al 28 a les 17 UTC
Vent 9 kt del Oest
Visibilitat 10 km o més
Cel clar

TAF: KPAM 271100Z 2711/2817 34010G20KT 9999 SKC QNH3018INS WND 33010G15KT AFT 2718 BECMG 2816/2817 27009KT 9999 SKC QNH3020INS TX11/2721Z TN05/2711Z

Observacions i pronòstics meteorològics de més de 4000 aeroports (METAR i TAF).

Les estacions disponibles són els punts grocs i vermells al mapa.

Posi el ratolí al punt desitjat per veure el nom de l'estació.

Feu clic per veure les observacions i els pronòstics meteorològics.

Per canviar el mapa: feu clic els botons verds amb una creu de color negre per apropar; al botó verd amb un guió per allunyar la imatge; o en les fletxes verdes per a mapes adjacents.


METAR-TAF: